Time;durP1;ratioP1;P1;durP2;ratioP2;P2;SDS_P1;SDS_P2;PMS_P1;PMS_P2;Temp;Humidity;BMP_temperature;BMP_pressure;BME280_temperature;BME280_humidity;BME280_pressure;Samples;Min_cycle;Max_cycle;Signal;HPM_P1;HPM_P2
2022/11/22 00:00:39;;;;;;;13.63;2.35;;;7.20;99.90;;;;;;5057866;28;20292;-60
2022/11/22 00:03:05;;;;;;;17.40;2.35;;;7.20;99.90;;;;;;5057182;28;20033;-62
2022/11/22 00:05:31;;;;;;;15.88;2.30;;;7.20;99.90;;;;;;5057952;28;20041;-61
2022/11/22 00:07:57;;;;;;;18.67;2.13;;;7.20;99.90;;;;;;5057673;28;20039;-60
2022/11/22 00:10:23;;;;;;;15.35;2.38;;;7.20;99.90;;;;;;5058172;28;20104;-62
2022/11/22 00:12:48;;;;;;;13.13;2.20;;;7.20;99.90;;;;;;5057001;28;20032;-62
2022/11/22 00:15:14;;;;;;;16.73;2.17;;;7.10;99.90;;;;;;5056941;28;20120;-61
2022/11/22 00:17:40;;;;;;;15.15;2.08;;;7.10;99.90;;;;;;5057600;28;20395;-64
2022/11/22 00:20:09;;;;;;;10.90;2.75;;;7.10;99.90;;;;;;5056704;28;20076;-62
2022/11/22 00:22:35;;;;;;;13.02;2.20;;;7.10;99.90;;;;;;5057550;28;20029;-63
2022/11/22 00:25:01;;;;;;;14.65;2.20;;;7.20;99.90;;;;;;5057439;28;20393;-61
2022/11/22 00:27:26;;;;;;;12.32;2.30;;;7.20;99.90;;;;;;5056682;28;20420;-62
2022/11/22 00:29:52;;;;;;;11.75;2.47;;;7.20;99.90;;;;;;5057637;28;20037;-60
2022/11/22 00:32:18;;;;;;;15.05;2.67;;;7.10;99.90;;;;;;5056688;28;20407;-62
2022/11/22 00:34:44;;;;;;;12.40;1.98;;;7.20;99.90;;;;;;5056589;28;20032;-62
2022/11/22 00:37:10;;;;;;;18.75;2.55;;;7.20;99.90;;;;;;5057293;28;20400;-65
2022/11/22 00:39:36;;;;;;;14.15;2.33;;;7.10;99.90;;;;;;5057537;28;20029;-61
2022/11/22 00:42:02;;;;;;;14.10;2.78;;;7.10;99.90;;;;;;5039796;28;20470;-61
2022/11/22 00:44:27;;;;;;;12.85;2.38;;;7.00;99.90;;;;;;5057596;28;20404;-61
2022/11/22 00:46:53;;;;;;;14.77;2.20;;;7.00;99.90;;;;;;5056757;28;20403;-61
2022/11/22 00:49:19;;;;;;;13.68;2.30;;;7.00;99.90;;;;;;5039881;28;20033;-61
2022/11/22 00:51:45;;;;;;;13.85;2.17;;;7.00;99.90;;;;;;5057161;28;20025;-60
2022/11/22 00:54:10;;;;;;;11.88;2.30;;;6.90;99.90;;;;;;5056976;28;20064;-61
2022/11/22 00:56:36;;;;;;;12.25;2.50;;;6.90;99.90;;;;;;5056218;28;20120;-60
2022/11/22 00:59:02;;;;;;;17.38;2.78;;;6.90;99.90;;;;;;5055988;28;20049;-63
2022/11/22 01:01:28;;;;;;;17.75;2.72;;;6.90;99.90;;;;;;5056197;28;20370;-63
2022/11/22 01:03:54;;;;;;;11.00;2.20;;;6.90;99.90;;;;;;5039336;28;20047;-61
2022/11/22 01:06:19;;;;;;;12.25;2.17;;;6.90;99.90;;;;;;5056867;28;20037;-61
2022/11/22 01:08:45;;;;;;;17.63;2.75;;;6.80;99.90;;;;;;5056180;28;20385;-62
2022/11/22 01:11:13;;;;;;;15.93;2.45;;;6.80;99.90;;;;;;5056766;28;20051;-60
2022/11/22 01:13:38;;;;;;;16.10;2.70;;;6.80;99.90;;;;;;5056161;28;20037;-61
2022/11/22 01:16:07;;;;;;;14.68;2.78;;;6.70;99.90;;;;;;5056796;28;20305;-61
2022/11/22 01:18:33;;;;;;;15.38;2.15;;;6.80;99.90;;;;;;5056724;28;20339;-60
2022/11/22 01:21:02;;;;;;;15.10;2.40;;;6.80;99.90;;;;;;5056867;28;20037;-61
2022/11/22 01:23:28;;;;;;;8.90;2.00;;;6.70;99.90;;;;;;5039412;28;20025;-61
2022/11/22 01:25:54;;;;;;;16.75;2.72;;;6.70;99.90;;;;;;5056033;28;20029;-61
2022/11/22 01:28:20;;;;;;;12.85;2.70;;;6.70;99.90;;;;;;5056682;28;20392;-60
2022/11/22 01:30:49;;;;;;;12.23;2.35;;;6.60;99.90;;;;;;5056860;28;20061;-62
2022/11/22 01:33:15;;;;;;;16.20;2.45;;;6.60;99.90;;;;;;5056216;28;20037;-60
2022/11/22 01:35:42;;;;;;;11.55;2.47;;;6.60;99.90;;;;;;5056630;28;20107;-60
2022/11/22 01:38:08;;;;;;;12.52;2.20;;;6.60;99.90;;;;;;5055861;28;20037;-60
2022/11/22 01:40:34;;;;;;;13.60;2.42;;;6.60;99.90;;;;;;5039132;28;20052;-60
2022/11/22 01:43:00;;;;;;;11.30;2.30;;;6.60;99.90;;;;;;5055826;28;20028;-60
2022/11/22 01:45:29;;;;;;;14.55;2.45;;;6.50;99.90;;;;;;5056559;28;20059;-60
2022/11/22 01:48:15;;;;;;;12.50;1.90;;;6.40;99.90;;;;;;5056487;28;20400;-60
2022/11/22 01:50:45;;;;;;;10.45;1.88;;;6.40;99.90;;;;;;5056521;28;20048;-59
2022/11/22 01:53:19;;;;;;;10.02;2.47;;;6.40;99.90;;;;;;5056379;28;20037;-59
2022/11/22 01:55:46;;;;;;;14.57;2.25;;;6.40;99.90;;;;;;5056492;28;20108;-59
2022/11/22 01:58:14;;;;;;;13.25;2.10;;;6.40;99.90;;;;;;5056755;28;20025;-60
2022/11/22 02:00:41;;;;;;;12.95;2.05;;;6.40;99.90;;;;;;5059392;28;20037;-59
2022/11/22 02:03:10;;;;;;;11.35;2.58;;;6.40;99.90;;;;;;5059657;28;20308;-59
2022/11/22 02:05:36;;;;;;;11.18;2.22;;;6.40;99.90;;;;;;5060076;28;20124;-60
2022/11/22 02:08:08;;;;;;;11.48;2.17;;;6.30;99.90;;;;;;5059194;28;20120;-60
2022/11/22 02:10:39;;;;;;;16.85;2.65;;;6.30;99.90;;;;;;5059973;28;20075;-61
2022/11/22 02:13:06;;;;;;;10.85;1.60;;;6.30;99.90;;;;;;5060131;28;20025;-60
2022/11/22 02:15:34;;;;;;;17.35;2.33;;;6.30;99.90;;;;;;5059845;28;20392;-60
2022/11/22 02:18:00;;;;;;;12.27;1.92;;;6.30;99.90;;;;;;5060417;28;20412;-59
2022/11/22 02:20:26;;;;;;;8.23;2.03;;;6.30;99.90;;;;;;5058951;28;20056;-60
2022/11/22 02:23:08;;;;;;;10.52;2.53;;;6.20;99.90;;;;;;5060037;28;20033;-60
2022/11/22 02:25:40;;;;;;;10.70;1.70;;;6.20;99.90;;;;;;5060039;28;20404;-60
2022/11/22 02:28:11;;;;;;;10.00;1.73;;;6.10;99.90;;;;;;5059740;28;20025;-60
2022/11/22 02:30:38;;;;;;;12.38;1.95;;;6.20;99.90;;;;;;5059109;28;20033;-60
2022/11/22 02:33:03;;;;;;;10.57;2.38;;;6.10;99.90;;;;;;5059606;28;20025;-60
2022/11/22 02:35:30;;;;;;;10.55;2.13;;;6.10;99.90;;;;;;5058714;28;20416;-60
2022/11/22 02:38:13;;;;;;;13.88;2.25;;;6.10;99.90;;;;;;5059583;28;20037;-60
2022/11/22 02:40:44;;;;;;;12.82;1.90;;;6.00;99.90;;;;;;5059663;28;20052;-60
2022/11/22 02:43:16;;;;;;;10.05;1.50;;;6.00;99.90;;;;;;5059396;28;20040;-60
2022/11/22 02:45:42;;;;;;;12.18;2.00;;;6.00;99.90;;;;;;5058668;28;20033;-60
2022/11/22 02:48:13;;;;;;;8.73;1.58;;;5.90;99.90;;;;;;5059307;28;20033;-59
2022/11/22 02:50:39;;;;;;;8.07;1.30;;;5.90;99.90;;;;;;5058460;28;20303;-60
2022/11/22 02:53:06;;;;;;;12.50;1.80;;;6.00;99.90;;;;;;5058440;28;20115;-60
2022/11/22 02:55:32;;;;;;;11.52;2.20;;;5.90;99.90;;;;;;5059170;28;20021;-59
2022/11/22 02:57:58;;;;;;;14.05;1.95;;;5.90;99.90;;;;;;5059119;28;20102;-60
2022/11/22 03:00:24;;;;;;;9.35;2.03;;;5.90;99.90;;;;;;5059019;28;20300;-60
2022/11/22 03:02:49;;;;;;;9.15;1.60;;;5.90;99.90;;;;;;5058998;28;20064;-59
2022/11/22 03:05:15;;;;;;;10.43;1.67;;;5.90;99.90;;;;;;5058058;28;20428;-60
2022/11/22 03:07:41;;;;;;;8.93;1.55;;;5.90;99.90;;;;;;5058948;28;20029;-60
2022/11/22 03:10:07;;;;;;;10.93;1.50;;;5.90;99.90;;;;;;5058582;28;20038;-60
2022/11/22 03:12:33;;;;;;;8.32;1.40;;;5.80;99.90;;;;;;5058877;28;20033;-60
2022/11/22 03:14:59;;;;;;;8.40;1.42;;;5.80;99.90;;;;;;5059099;28;20033;-60
2022/11/22 03:17:25;;;;;;;8.57;1.67;;;5.80;99.90;;;;;;5058796;28;20037;-60
2022/11/22 03:19:50;;;;;;;11.98;1.45;;;5.70;99.90;;;;;;5057969;28;20327;-60
2022/11/22 03:22:16;;;;;;;4.65;1.08;;;5.70;99.90;;;;;;5059098;28;20033;-60
2022/11/22 03:24:42;;;;;;;8.38;1.40;;;5.70;99.90;;;;;;5059148;28;20043;-60
2022/11/22 03:27:08;;;;;;;10.80;1.60;;;5.70;99.90;;;;;;5059079;28;20040;-60
2022/11/22 03:29:34;;;;;;;9.90;1.60;;;5.70;99.90;;;;;;5058535;28;20040;-59
2022/11/22 03:31:59;;;;;;;8.43;1.30;;;5.70;99.90;;;;;;5058442;28;20104;-60
2022/11/22 03:34:25;;;;;;;8.40;1.58;;;5.70;99.90;;;;;;5058494;28;20029;-60
2022/11/22 03:36:51;;;;;;;8.38;1.40;;;5.70;99.90;;;;;;5058414;28;20033;-60
2022/11/22 03:39:17;;;;;;;7.57;1.58;;;5.70;99.90;;;;;;5057451;28;20049;-60
2022/11/22 03:41:43;;;;;;;8.70;1.35;;;5.70;99.90;;;;;;5041135;28;20393;-60
2022/11/22 03:44:08;;;;;;;11.30;1.45;;;5.70;99.90;;;;;;5058305;28;20033;-60
2022/11/22 03:46:34;;;;;;;8.80;1.40;;;5.70;99.90;;;;;;5057557;28;20025;-60
2022/11/22 03:49:00;;;;;;;8.60;1.63;;;5.70;99.90;;;;;;5057466;28;20071;-60
2022/11/22 03:51:26;;;;;;;7.30;1.67;;;5.60;99.90;;;;;;5058154;28;20033;-60
2022/11/22 03:53:52;;;;;;;5.80;1.40;;;5.60;99.90;;;;;;5057268;28;20033;-60
2022/11/22 03:56:18;;;;;;;9.63;1.63;;;5.60;99.90;;;;;;5058023;28;20112;-60
2022/11/22 03:58:44;;;;;;;5.45;1.10;;;5.50;99.90;;;;;;5057900;28;20305;-60
2022/11/22 04:01:09;;;;;;;6.55;1.45;;;5.60;99.90;;;;;;5057757;28;20036;-60
2022/11/22 04:03:35;;;;;;;8.45;1.58;;;5.60;99.90;;;;;;5057942;28;20025;-60
2022/11/22 04:06:01;;;;;;;6.05;1.25;;;5.60;99.90;;;;;;5040409;28;20424;-60
2022/11/22 04:08:27;;;;;;;11.52;1.77;;;5.50;99.90;;;;;;5057215;28;20048;-61
2022/11/22 04:10:53;;;;;;;10.15;1.30;;;5.50;99.90;;;;;;5057693;28;20384;-61
2022/11/22 04:13:19;;;;;;;11.85;2.00;;;5.50;99.90;;;;;;5057691;28;20071;-59
2022/11/22 04:15:45;;;;;;;9.00;1.20;;;5.60;99.90;;;;;;5057615;28;20087;-60
2022/11/22 04:18:12;;;;;;;11.45;1.30;;;5.60;99.90;;;;;;5057172;28;20037;-60
2022/11/22 04:23:25;;;;;;;7.95;1.40;;;5.50;99.90;;;;;;5057508;28;20029;-59
2022/11/22 04:25:53;;;;;;;7.18;1.60;;;5.60;99.90;;;;;;5057463;28;20029;-60
2022/11/22 04:28:21;;;;;;;6.75;1.63;;;5.60;99.90;;;;;;5057406;28;20407;-60
2022/11/22 04:33:32;;;;;;;8.18;1.25;;;5.50;99.90;;;;;;5056786;28;20087;-60
2022/11/22 04:35:58;;;;;;;7.80;1.60;;;5.50;99.90;;;;;;5056635;28;20037;-60
2022/11/22 04:38:24;;;;;;;6.50;2.30;;;5.50;99.90;;;;;;5056998;28;20029;-60
2022/11/22 04:40:50;;;;;;;10.20;1.98;;;5.60;99.90;;;;;;5056977;28;20421;-60
2022/11/22 04:46:13;;;;;;;11.85;1.63;;;5.70;99.90;;;;;;5056725;28;20107;-60
2022/11/22 04:48:39;;;;;;;7.53;1.55;;;5.70;99.90;;;;;;5056520;28;20412;-61
2022/11/22 04:53:50;;;;;;;8.77;1.42;;;5.80;99.90;;;;;;5057113;28;20071;-60
2022/11/22 04:56:17;;;;;;;10.02;2.08;;;5.80;99.90;;;;;;5056990;28;20086;-60
2022/11/22 04:58:43;;;;;;;7.03;1.75;;;5.80;99.90;;;;;;5039784;28;20099;-60
2022/11/22 05:01:10;;;;;;;7.78;1.85;;;5.90;99.90;;;;;;5056014;28;20043;-60
2022/11/22 05:03:36;;;;;;;6.35;1.35;;;5.90;99.90;;;;;;5056157;28;20116;-60
2022/11/22 05:06:04;;;;;;;8.05;1.90;;;5.90;99.90;;;;;;5039389;28;20100;-61
2022/11/22 05:08:30;;;;;;;10.20;1.73;;;5.90;99.90;;;;;;5056908;28;20033;-61
2022/11/22 05:10:57;;;;;;;9.52;1.52;;;5.90;99.90;;;;;;5056121;28;20040;-60
2022/11/22 05:13:35;;;;;;;4.97;1.23;;;5.90;99.90;;;;;;5056874;28;20028;-60
2022/11/22 05:16:02;;;;;;;4.90;1.20;;;5.90;99.90;;;;;;5056821;28;20126;-60
2022/11/22 05:18:28;;;;;;;5.30;1.70;;;5.90;99.90;;;;;;5039578;28;20037;-60
2022/11/22 05:20:55;;;;;;;9.15;1.85;;;5.80;99.90;;;;;;5039506;28;20044;-61
2022/11/22 05:26:07;;;;;;;8.60;1.60;;;5.90;99.90;;;;;;5055958;28;20033;-60
2022/11/22 05:28:34;;;;;;;7.10;1.63;;;5.90;99.90;;;;;;5056701;28;20075;-61
2022/11/22 05:31:21;;;;;;;7.45;1.60;;;6.00;99.90;;;;;;5056588;28;20040;-60
2022/11/22 05:33:49;;;;;;;11.00;1.58;;;6.00;99.90;;;;;;5059707;28;20043;-61
2022/11/22 05:36:15;;;;;;;7.05;1.30;;;6.00;99.90;;;;;;5060618;28;20028;-58
2022/11/22 05:38:41;;;;;;;5.72;1.50;;;6.00;99.90;;;;;;5060618;28;20029;-59
2022/11/22 05:41:09;;;;;;;7.40;1.70;;;6.00;99.90;;;;;;5059645;28;20087;-60
2022/11/22 05:43:36;;;;;;;6.72;1.40;;;6.10;99.90;;;;;;5059782;28;20025;-60
2022/11/22 05:46:09;;;;;;;7.15;1.20;;;6.10;99.90;;;;;;5060480;28;20078;-60
2022/11/22 05:48:37;;;;;;;6.72;1.42;;;6.00;99.90;;;;;;5059721;28;20033;-60
2022/11/22 05:51:04;;;;;;;10.13;1.80;;;6.00;99.90;;;;;;5060347;28;20056;-60
2022/11/22 05:53:30;;;;;;;8.60;1.63;;;6.10;99.90;;;;;;5060503;28;20155;-61
2022/11/22 05:55:56;;;;;;;7.28;1.55;;;6.10;99.90;;;;;;5060850;28;20048;-60
2022/11/22 05:58:22;;;;;;;6.45;1.40;;;6.10;99.90;;;;;;5042744;28;20443;-60
2022/11/22 06:00:48;;;;;;;5.90;1.95;;;6.10;99.90;;;;;;5059326;28;20400;-60
2022/11/22 06:03:14;;;;;;;6.82;1.30;;;6.10;99.90;;;;;;5060391;28;20036;-60
2022/11/22 06:05:39;;;;;;;5.70;1.52;;;6.20;99.90;;;;;;5059159;28;20064;-60
2022/11/22 06:08:05;;;;;;;10.23;1.98;;;6.20;99.90;;;;;;5060167;28;20025;-60
2022/11/22 06:10:35;;;;;;;7.88;1.80;;;6.10;99.90;;;;;;5059760;28;20029;-60
2022/11/22 06:13:01;;;;;;;3.55;1.50;;;6.10;99.90;;;;;;5060270;28;20029;-60
2022/11/22 06:15:28;;;;;;;9.05;2.13;;;6.10;99.90;;;;;;5059941;28;20048;-60
2022/11/22 06:17:54;;;;;;;10.45;2.22;;;6.10;99.90;;;;;;5059547;28;20035;-60
2022/11/22 06:20:20;;;;;;;6.03;1.85;;;6.20;99.90;;;;;;5059852;28;20029;-61
2022/11/22 06:22:46;;;;;;;6.60;1.88;;;6.20;99.90;;;;;;5059466;28;20061;-60
2022/11/22 06:25:11;;;;;;;13.43;2.25;;;6.10;99.90;;;;;;5059711;28;20118;-61
2022/11/22 06:27:37;;;;;;;8.90;1.83;;;6.10;99.90;;;;;;5060039;28;20036;-59
2022/11/22 06:30:03;;;;;;;11.00;1.55;;;6.00;99.90;;;;;;5059687;28;20361;-59
2022/11/22 06:32:32;;;;;;;9.25;2.22;;;6.10;99.90;;;;;;5058922;28;20037;-59
2022/11/22 06:35:00;;;;;;;10.57;1.77;;;6.20;99.90;;;;;;5059553;28;20049;-59
2022/11/22 06:37:26;;;;;;;8.77;2.08;;;6.10;99.90;;;;;;5059549;28;20033;-59
2022/11/22 06:39:51;;;;;;;7.35;2.17;;;6.10;99.90;;;;;;5059432;28;20086;-59
2022/11/22 06:42:17;;;;;;;6.60;1.98;;;6.10;99.90;;;;;;5042167;28;20025;-60
2022/11/22 06:44:43;;;;;;;11.18;2.17;;;6.10;99.90;;;;;;5058613;28;20025;-61
2022/11/22 06:47:09;;;;;;;8.98;2.38;;;6.10;99.90;;;;;;5058518;28;20389;-60
2022/11/22 06:49:35;;;;;;;12.02;2.15;;;6.20;99.90;;;;;;5058439;28;20056;-60
2022/11/22 06:52:01;;;;;;;9.50;1.90;;;6.20;99.90;;;;;;5041843;28;20029;-60
2022/11/22 06:54:26;;;;;;;11.68;2.15;;;6.20;99.90;;;;;;5059263;28;20033;-60
2022/11/22 06:56:52;;;;;;;8.38;1.92;;;6.20;99.90;;;;;;5059112;28;20040;-61
2022/11/22 06:59:18;;;;;;;7.75;2.08;;;6.20;99.90;;;;;;5058308;28;20041;-60
2022/11/22 07:01:44;;;;;;;9.10;2.13;;;6.30;99.90;;;;;;5058333;28;20120;-60
2022/11/22 07:04:10;;;;;;;7.15;2.20;;;6.30;99.90;;;;;;5059344;28;20045;-60
2022/11/22 07:06:37;;;;;;;7.53;2.05;;;6.30;99.90;;;;;;5059136;28;20116;-60
2022/11/22 07:09:05;;;;;;;6.45;1.80;;;6.30;99.90;;;;;;5059105;28;20079;-60
2022/11/22 07:11:32;;;;;;;9.05;2.65;;;6.30;99.90;;;;;;5058199;28;20067;-61
2022/11/22 07:14:00;;;;;;;5.93;1.90;;;6.30;99.90;;;;;;5058819;28;20032;-61
2022/11/22 07:16:26;;;;;;;7.20;2.00;;;6.30;99.90;;;;;;5058753;28;20040;-60
2022/11/22 07:18:52;;;;;;;10.20;2.22;;;6.30;99.90;;;;;;5058771;28;20075;-60
2022/11/22 07:21:23;;;;;;;5.65;1.60;;;6.30;99.90;;;;;;5058897;28;20041;-60
2022/11/22 07:23:51;;;;;;;10.98;2.20;;;6.30;99.90;;;;;;5058608;28;20108;-61
2022/11/22 07:26:18;;;;;;;9.70;2.25;;;6.30;99.90;;;;;;5058511;28;20083;-60
2022/11/22 07:28:45;;;;;;;8.20;1.77;;;6.30;99.90;;;;;;5057632;28;20087;-61
2022/11/22 07:31:13;;;;;;;7.70;2.17;;;6.30;99.90;;;;;;5041023;28;20107;-61
2022/11/22 07:33:39;;;;;;;6.35;1.67;;;6.30;99.90;;;;;;5057670;28;20083;-60
2022/11/22 07:36:11;;;;;;;5.00;1.42;;;6.60;99.90;;;;;;5058472;28;20029;-60
2022/11/22 07:38:38;;;;;;;5.60;1.70;;;6.50;99.90;;;;;;5057470;28;20040;-60
2022/11/22 07:41:05;;;;;;;8.45;1.63;;;6.40;99.90;;;;;;5057607;28;20072;-60
2022/11/22 07:43:31;;;;;;;5.57;1.90;;;6.40;99.90;;;;;;5058255;28;20053;-60
2022/11/22 07:46:02;;;;;;;8.40;1.95;;;6.40;99.90;;;;;;5057523;28;20043;-60
2022/11/22 07:48:28;;;;;;;7.65;2.00;;;6.40;99.90;;;;;;5040854;28;20392;-60
2022/11/22 07:50:54;;;;;;;11.73;1.95;;;6.50;99.90;;;;;;5058147;28;20118;-60
2022/11/22 07:53:20;;;;;;;4.47;1.58;;;6.40;99.90;;;;;;5057222;28;20297;-60
2022/11/22 07:55:46;;;;;;;4.93;1.38;;;6.40;99.90;;;;;;5057126;28;20040;-60
2022/11/22 07:58:12;;;;;;;7.63;1.95;;;6.40;99.90;;;;;;5056931;28;20171;-60
2022/11/22 08:00:38;;;;;;;6.75;1.92;;;6.40;99.90;;;;;;5040581;28;20032;-60
2022/11/22 08:03:07;;;;;;;5.35;2.05;;;6.40;99.90;;;;;;5057218;28;20048;-60
2022/11/22 08:05:33;;;;;;;5.32;1.67;;;6.50;99.90;;;;;;5057177;28;20045;-59
2022/11/22 08:07:59;;;;;;;6.38;1.48;;;6.40;99.90;;;;;;5007719;28;20040;-59
2022/11/22 08:10:24;;;;;;;7.97;1.95;;;6.50;99.90;;;;;;5057135;28;20087;-59
2022/11/22 08:12:50;;;;;;;10.25;2.05;;;6.50;99.90;;;;;;5057124;28;20127;-59
2022/11/22 08:15:16;;;;;;;11.10;2.17;;;6.30;99.90;;;;;;5024076;28;20089;-59
2022/11/22 08:17:43;;;;;;;3.72;1.73;;;6.30;99.90;;;;;;5056925;28;20120;-60
2022/11/22 08:20:09;;;;;;;4.20;1.50;;;6.30;99.90;;;;;;5056900;28;20044;-59
2022/11/22 08:22:37;;;;;;;6.78;1.98;;;6.30;99.90;;;;;;5056902;28;20035;-59
2022/11/22 08:25:03;;;;;;;7.20;2.00;;;6.30;99.90;;;;;;5057508;28;20029;-60
2022/11/22 08:27:29;;;;;;;8.73;1.70;;;6.40;99.90;;;;;;5056741;28;20033;-60
2022/11/22 08:29:55;;;;;;;7.32;2.33;;;6.40;99.90;;;;;;5040109;28;20033;-59
2022/11/22 08:32:21;;;;;;;8.70;2.58;;;6.50;99.90;;;;;;5057755;28;20017;-60
2022/11/22 08:34:46;;;;;;;7.40;2.00;;;6.50;99.90;;;;;;5040233;28;20040;-59
2022/11/22 08:37:12;;;;;;;6.80;2.10;;;6.50;99.90;;;;;;5023528;28;20396;-59
2022/11/22 08:39:38;;;;;;;5.75;1.60;;;6.60;99.90;;;;;;5007245;28;20048;-60
2022/11/22 08:42:05;;;;;;;6.97;1.92;;;6.60;99.90;;;;;;5057581;28;20025;-59
2022/11/22 08:44:31;;;;;;;7.78;2.75;;;6.60;99.90;;;;;;5040259;28;20051;-59
2022/11/22 08:46:57;;;;;;;6.72;1.80;;;6.70;99.90;;;;;;5056466;28;20037;-61
2022/11/22 08:49:23;;;;;;;5.18;1.60;;;6.70;99.90;;;;;;5056388;28;20029;-60
2022/11/22 08:51:48;;;;;;;6.88;1.60;;;6.80;99.90;;;;;;5057091;28;20076;-58
2022/11/22 08:54:14;;;;;;;3.95;1.48;;;6.80;99.90;;;;;;5057044;28;20065;-59
2022/11/22 08:56:40;;;;;;;6.90;1.50;;;6.80;99.90;;;;;;5056943;28;20347;-59
2022/11/22 08:59:06;;;;;;;4.57;1.63;;;6.90;99.90;;;;;;5057315;28;20420;-59
2022/11/22 09:01:32;;;;;;;5.10;1.67;;;6.90;99.90;;;;;;5056135;28;20029;-58
2022/11/22 09:03:58;;;;;;;4.72;1.60;;;6.90;99.90;;;;;;5056037;28;20175;-59
2022/11/22 09:06:24;;;;;;;4.82;1.73;;;6.90;99.90;;;;;;5057305;28;20100;-60
2022/11/22 09:08:50;;;;;;;6.65;1.40;;;6.90;99.90;;;;;;5055988;28;20103;-59
2022/11/22 09:11:18;;;;;;;6.50;1.75;;;6.90;99.90;;;;;;5056151;28;20037;-60
2022/11/22 09:13:45;;;;;;;4.80;1.58;;;7.00;99.90;;;;;;5039491;28;20412;-58
2022/11/22 09:16:13;;;;;;;9.55;1.60;;;7.10;99.90;;;;;;5056931;28;20025;-59
2022/11/22 09:18:39;;;;;;;7.05;1.65;;;7.10;99.90;;;;;;5056097;28;20083;-59
2022/11/22 09:21:08;;;;;;;6.30;1.70;;;7.10;99.90;;;;;;5056852;28;20045;-60
2022/11/22 09:23:35;;;;;;;6.25;1.98;;;7.10;99.90;;;;;;5056875;28;20159;-59
2022/11/22 09:26:06;;;;;;;8.77;1.50;;;7.20;99.90;;;;;;5056155;28;20033;-60
2022/11/22 09:28:33;;;;;;;5.13;1.70;;;7.10;99.90;;;;;;5055932;28;20115;-59
2022/11/22 09:31:07;;;;;;;3.58;1.35;;;7.10;99.90;;;;;;5056718;28;20029;-59
2022/11/22 09:33:35;;;;;;;6.50;1.63;;;7.10;99.90;;;;;;5056670;28;20061;-60
2022/11/22 09:36:06;;;;;;;9.85;1.90;;;7.10;99.90;;;;;;5056687;28;20036;-59
2022/11/22 09:38:33;;;;;;;4.85;1.50;;;7.10;99.90;;;;;;5056422;28;20037;-59
2022/11/22 09:41:03;;;;;;;6.57;1.60;;;7.10;99.90;;;;;;5055272;28;20047;-59
2022/11/22 09:43:29;;;;;;;3.10;1.40;;;7.20;99.90;;;;;;5055417;28;20115;-60
2022/11/22 09:46:16;;;;;;;6.20;1.90;;;7.30;99.90;;;;;;5055935;28;20021;-60
2022/11/22 09:49:16;;;;;;;6.43;1.95;;;7.20;99.90;;;;;;5055142;28;20316;-60
2022/11/22 09:51:48;;;;;;;4.97;1.75;;;7.30;99.90;;;;;;5056256;28;20029;-60
2022/11/22 09:54:21;;;;;;;8.73;1.80;;;7.30;99.90;;;;;;5056809;28;20355;-60
2022/11/22 09:56:48;;;;;;;;;;;7.40;99.90;;;;;;5056372;28;20029;-61
2022/11/22 09:59:21;;;;;;;7.05;1.73;;;7.40;99.90;;;;;;5055560;28;19931;-60
2022/11/22 10:02:00;;;;;;;7.22;1.70;;;7.40;99.90;;;;;;5056192;28;20060;-60
2022/11/22 10:04:34;;;;;;;7.75;1.90;;;7.40;99.90;;;;;;5055216;28;20045;-59
2022/11/22 10:07:05;;;;;;;6.60;1.80;;;7.30;99.90;;;;;;5056266;28;20025;-59
2022/11/22 10:09:59;;;;;;;5.47;1.50;;;7.20;99.90;;;;;;5056384;28;20103;-59
2022/11/22 10:12:34;;;;;;;4.65;1.50;;;7.20;99.90;;;;;;5055096;28;20041;-60
2022/11/22 10:15:03;;;;;;;7.55;1.50;;;7.10;99.90;;;;;;5056310;28;20031;-60
2022/11/22 10:17:52;;;;;;;7.25;1.30;;;7.10;99.90;;;;;;5056246;28;20056;-59
2022/11/22 10:20:19;;;;;;;6.13;1.63;;;7.30;99.90;;;;;;5058292;28;20039;-59
2022/11/22 10:22:46;;;;;;;5.30;1.40;;;7.30;99.90;;;;;;5059856;28;20032;-59
2022/11/22 10:25:47;;;;;;;4.10;1.40;;;7.30;99.90;;;;;;5059845;28;20029;-59
2022/11/22 10:28:17;;;;;;;4.90;1.55;;;7.40;99.90;;;;;;5055943;28;20079;-59
2022/11/22 10:30:59;;;;;;;5.30;1.40;;;7.40;99.90;;;;;;5059248;28;20048;-59
2022/11/22 10:33:31;;;;;;;6.00;1.40;;;7.50;99.90;;;;;;5059731;28;20049;-59
2022/11/22 10:36:04;;;;;;;4.47;1.13;;;7.50;99.90;;;;;;5059832;28;20036;-59
2022/11/22 10:38:36;;;;;;;4.97;1.17;;;7.50;99.90;;;;;;5059618;28;20033;-59
2022/11/22 10:41:09;;;;;;;3.72;1.10;;;7.50;99.90;;;;;;5060070;28;20032;-60
2022/11/22 10:43:35;;;;;;;3.00;1.20;;;7.40;99.90;;;;;;5058673;28;20040;-59
2022/11/22 10:46:12;;;;;;;5.32;1.60;;;7.40;99.90;;;;;;5060016;28;20272;-59
2022/11/22 10:48:49;;;;;;;6.72;1.20;;;7.40;99.90;;;;;;5058544;28;20132;-59
2022/11/22 10:51:50;;;;;;;4.35;1.23;;;7.40;99.90;;;;;;5059487;28;20024;-59
2022/11/22 10:54:27;;;;;;;3.83;1.10;;;7.50;99.90;;;;;;5059610;28;20055;-59
2022/11/22 10:56:56;;;;;;;6.43;1.60;;;7.50;99.90;;;;;;5041894;28;20040;-59
2022/11/22 10:59:39;;;;;;;3.97;1.30;;;7.60;99.90;;;;;;5058416;28;20048;-59
2022/11/22 11:02:34;;;;;;;5.28;1.30;;;7.70;99.90;;;;;;5059135;28;20171;-60
2022/11/22 11:05:04;;;;;;;4.07;1.50;;;7.70;99.90;;;;;;5058904;28;20124;-61
2022/11/22 11:07:31;;;;;;;6.47;1.65;;;7.80;99.90;;;;;;5059102;28;20033;-59
2022/11/22 11:10:02;;;;;;;4.95;1.30;;;7.80;99.90;;;;;;5058301;28;20359;-59
2022/11/22 11:12:37;;;;;;;3.40;1.00;;;8.00;99.90;;;;;;5059175;28;20051;-60
2022/11/22 11:15:22;;;;;;;4.25;1.00;;;8.00;99.90;;;;;;5058132;28;20397;-59
2022/11/22 11:17:57;;;;;;;2.80;1.00;;;8.20;99.90;;;;;;5058854;28;20055;-59
2022/11/22 11:20:30;;;;;;;4.10;1.08;;;8.20;99.90;;;;;;5058053;28;20044;-58
2022/11/22 11:22:56;;;;;;;3.20;1.13;;;8.20;99.90;;;;;;5059001;28;20036;-61
2022/11/22 11:25:41;;;;;;;3.45;0.98;;;8.00;99.90;;;;;;5058038;28;20396;-60
2022/11/22 11:28:19;;;;;;;2.97;1.30;;;8.00;99.90;;;;;;5058854;28;20035;-59
2022/11/22 11:30:49;;;;;;;2.17;0.75;;;8.00;99.90;;;;;;5059048;28;20033;-61
2022/11/22 11:33:28;;;;;;;2.88;0.80;;;8.00;99.90;;;;;;5057633;28;20043;-61
2022/11/22 11:36:04;;;;;;;1.30;0.77;;;8.00;99.90;;;;;;5041202;28;20308;-61
2022/11/22 11:38:34;;;;;;;4.78;1.00;;;8.00;99.90;;;;;;5058379;28;20297;-61
2022/11/22 11:41:18;;;;;;;1.52;0.85;;;8.00;99.90;;;;;;5057517;28;20124;-60
2022/11/22 11:43:45;;;;;;;1.60;0.73;;;8.10;99.90;;;;;;5057634;28;20040;-60
2022/11/22 11:46:25;;;;;;;2.10;0.73;;;8.00;99.90;;;;;;5058527;28;20462;-61
2022/11/22 11:48:53;;;;;;;0.90;0.60;;;8.00;99.90;;;;;;5058140;28;20104;-61
2022/11/22 11:51:36;;;;;;;2.15;0.85;;;8.00;99.90;;;;;;5040884;28;20033;-60
2022/11/22 11:54:08;;;;;;;1.65;0.90;;;7.90;99.90;;;;;;5058073;28;20036;-60
2022/11/22 11:56:34;;;;;;;2.87;1.00;;;7.90;99.90;;;;;;5058410;28;20049;-61
2022/11/22 11:59:07;;;;;;;2.92;0.80;;;8.00;99.90;;;;;;5057253;28;20087;-60
2022/11/22 12:01:34;;;;;;;;;;;8.10;99.90;;;;;;5058395;28;20292;-59
2022/11/22 12:04:03;;;;;;;2.38;0.90;;;8.10;99.90;;;;;;5057550;28;19962;-59
2022/11/22 12:06:30;;;;;;;2.25;0.90;;;8.10;99.90;;;;;;5057943;28;20037;-60
2022/11/22 12:08:58;;;;;;;2.95;0.77;;;8.10;99.90;;;;;;5040407;28;20067;-59
2022/11/22 12:11:45;;;;;;;1.85;0.82;;;8.10;99.90;;;;;;5057815;28;20037;-59
2022/11/22 12:14:14;;;;;;;2.63;0.68;;;8.00;99.90;;;;;;5056915;28;20037;-59
2022/11/22 12:16:46;;;;;;;1.88;0.70;;;8.00;99.90;;;;;;5057054;28;20028;-62
2022/11/22 12:19:43;;;;;;;3.97;0.65;;;8.00;99.90;;;;;;5057785;28;20032;-59
2022/11/22 12:22:39;;;;;;;2.00;0.70;;;8.10;99.90;;;;;;5057607;28;20055;-60
2022/11/22 12:25:37;;;;;;;1.92;0.70;;;8.10;99.90;;;;;;5057808;28;20115;-60
2022/11/22 12:28:17;;;;;;;1.50;0.63;;;8.30;99.90;;;;;;5040097;28;20400;-60
2022/11/22 12:30:44;;;;;;;4.80;0.95;;;8.40;99.90;;;;;;5057512;28;20048;-60
2022/11/22 12:33:23;;;;;;;2.80;0.70;;;8.40;99.90;;;;;;5057324;28;20056;-61
2022/11/22 12:35:52;;;;;;;1.33;0.80;;;8.30;99.90;;;;;;5057689;28;20123;-60
2022/11/22 12:38:32;;;;;;;1.92;0.82;;;8.30;99.90;;;;;;5057250;28;20036;-59
2022/11/22 12:41:01;;;;;;;1.67;0.90;;;8.30;99.90;;;;;;5057555;28;20376;-60
2022/11/22 12:43:45;;;;;;;3.10;0.80;;;8.30;99.90;;;;;;5056855;28;20021;-61
2022/11/22 12:46:20;;;;;;;1.08;0.90;;;8.20;99.90;;;;;;5057053;28;20032;-60
2022/11/22 12:48:58;;;;;;;1.13;0.88;;;8.30;99.90;;;;;;5056590;28;20044;-61
2022/11/22 12:51:27;;;;;;;2.22;0.60;;;8.40;99.90;;;;;;5057788;28;20041;-60
2022/11/22 12:53:57;;;;;;;6.97;1.10;;;8.40;99.90;;;;;;5056329;28;20351;-60
2022/11/22 12:56:34;;;;;;;3.30;0.93;;;8.40;99.90;;;;;;5057818;28;20028;-61
2022/11/22 12:59:28;;;;;;;1.27;0.80;;;8.40;99.90;;;;;;5057054;28;20115;-59
2022/11/22 13:02:00;;;;;;;2.92;0.98;;;8.50;99.90;;;;;;5049149;28;20051;-59
2022/11/22 13:04:37;;;;;;;5.50;1.35;;;8.60;99.90;;;;;;5055896;28;20067;-60
2022/11/22 13:07:11;;;;;;;3.33;1.33;;;8.60;99.90;;;;;;5039694;28;20040;-59
2022/11/22 13:09:42;;;;;;;1.42;0.77;;;8.50;99.90;;;;;;5057314;28;20123;-61
2022/11/22 13:12:12;;;;;;;1.58;0.90;;;8.60;99.90;;;;;;5057342;28;20098;-60
2022/11/22 13:14:41;;;;;;;1.98;0.90;;;8.80;99.90;;;;;;5055966;28;20043;-59
2022/11/22 13:17:08;;;;;;;3.42;0.90;;;8.80;99.90;;;;;;5056748;28;20069;-60
2022/11/22 13:19:48;;;;;;;1.58;0.70;;;8.80;99.90;;;;;;5055863;28;20040;-60